Time;durP1;ratioP1;P1;durP2;ratioP2;P2;SDS_P1;SDS_P2;PMS_P1;PMS_P2;Temp;Humidity;BMP_temperature;BMP_pressure;BME280_temperature;BME280_humidity;BME280_pressure;Samples;Min_cycle;Max_cycle;Signal;HPM_P1;HPM_P2
2023/11/23 00:01:10;;;;;;;2.87;1.87;;;4.00;99.90;;;;;;4916164;29;20223;-82
2023/11/23 00:03:36;;;;;;;3.17;2.17;;;4.00;99.90;;;;;;4916245;29;20190;-80
2023/11/23 00:06:02;;;;;;;4.50;2.13;;;4.00;99.90;;;;;;4917218;29;20274;-80
2023/11/23 00:08:28;;;;;;;1.97;1.50;;;4.00;99.90;;;;;;4914182;29;20925;-81
2023/11/23 00:10:54;;;;;;;2.40;1.80;;;4.00;99.90;;;;;;4915617;29;20209;-81
2023/11/23 00:13:19;;;;;;;2.90;1.87;;;4.10;99.90;;;;;;4916341;29;20206;-80
2023/11/23 00:15:45;;;;;;;2.63;1.73;;;4.10;99.90;;;;;;4909014;29;20215;-81
2023/11/23 00:18:13;;;;;;;3.00;1.90;;;4.20;99.90;;;;;;4916389;29;20226;-81
2023/11/23 00:20:39;;;;;;;3.03;1.70;;;4.20;99.90;;;;;;4915543;29;20220;-81
2023/11/23 00:23:05;;;;;;;2.40;1.90;;;4.20;99.90;;;;;;4916011;29;20186;-81
2023/11/23 00:25:30;;;;;;;5.43;2.33;;;4.20;99.90;;;;;;4910248;29;20183;-81
2023/11/23 00:27:56;;;;;;;3.93;2.10;;;4.30;99.90;;;;;;4905418;29;20529;-83
2023/11/23 00:30:22;;;;;;;5.60;2.17;;;4.30;99.90;;;;;;4917023;29;20622;-81
2023/11/23 00:32:48;;;;;;;4.63;2.07;;;4.30;99.90;;;;;;4917005;29;20193;-82
2023/11/23 00:35:13;;;;;;;3.37;1.90;;;4.40;99.90;;;;;;4914989;29;20222;-79
2023/11/23 00:37:39;;;;;;;5.20;2.20;;;4.40;99.90;;;;;;4914502;29;20199;-81
2023/11/23 00:40:05;;;;;;;3.73;2.27;;;4.40;99.90;;;;;;4874473;29;1226761;-82
2023/11/23 00:42:31;;;;;;;4.23;2.20;;;4.50;99.90;;;;;;4900724;29;20202;-81
2023/11/23 00:44:57;;;;;;;4.47;2.10;;;4.50;99.90;;;;;;4917914;29;20183;-81
2023/11/23 00:47:22;;;;;;;3.17;2.27;;;4.50;99.90;;;;;;4913403;29;20190;-80
2023/11/23 00:49:48;;;;;;;3.83;2.50;;;4.50;99.90;;;;;;4908268;29;20202;-81
2023/11/23 00:52:15;;;;;;;3.83;2.47;;;4.60;99.90;;;;;;4915756;29;20284;-82
2023/11/23 00:54:40;;;;;;;5.33;2.53;;;4.60;99.90;;;;;;4917125;29;20216;-81
2023/11/23 00:57:06;;;;;;;5.57;2.63;;;4.70;99.90;;;;;;4912511;29;20182;-81
2023/11/23 00:59:33;;;;;;;6.23;2.87;;;4.70;99.90;;;;;;4914534;29;20255;-80
2023/11/23 01:02:01;;;;;;;4.47;2.63;;;4.70;99.90;;;;;;4917450;29;20182;-80
2023/11/23 01:04:27;;;;;;;4.23;2.70;;;4.70;99.90;;;;;;4916005;29;20190;-82
2023/11/23 01:06:54;;;;;;;7.00;2.80;;;4.80;99.90;;;;;;4906160;29;20293;-81
2023/11/23 01:09:20;;;;;;;3.43;2.60;;;4.80;99.90;;;;;;4900098;29;20583;-82
2023/11/23 01:11:46;;;;;;;6.03;3.20;;;4.80;99.90;;;;;;4915965;29;20191;-81
2023/11/23 01:14:12;;;;;;;5.07;3.17;;;4.80;99.90;;;;;;4917020;29;20229;-83
2023/11/23 01:16:38;;;;;;;6.90;3.30;;;4.90;99.90;;;;;;4910185;29;20197;-81
2023/11/23 01:19:04;;;;;;;5.43;3.37;;;4.90;99.90;;;;;;4917219;29;20269;-81
2023/11/23 01:21:30;;;;;;;5.87;3.53;;;4.90;99.90;;;;;;4909584;29;20221;-81
2023/11/23 01:23:56;;;;;;;6.50;3.77;;;4.90;99.90;;;;;;4892678;29;20198;-83
2023/11/23 01:26:22;;;;;;;6.47;3.80;;;4.90;99.90;;;;;;4911094;29;20187;-84
2023/11/23 01:28:47;;;;;;;5.70;3.73;;;4.90;99.90;;;;;;4906220;29;20269;-84
2023/11/23 01:31:14;;;;;;;6.50;3.80;;;4.90;99.90;;;;;;4895546;29;20186;-83
2023/11/23 01:33:39;;;;;;;7.73;4.13;;;5.00;99.90;;;;;;4908679;29;20561;-88
2023/11/23 01:36:06;;;;;;;6.83;4.20;;;5.00;99.90;;;;;;4893976;29;20202;-85
2023/11/23 01:38:33;;;;;;;5.53;4.00;;;5.00;99.90;;;;;;4896794;29;20620;-84
2023/11/23 01:40:59;;;;;;;5.53;4.23;;;5.00;99.90;;;;;;4904955;29;20243;-86
2023/11/23 01:43:25;;;;;;;7.27;4.10;;;5.10;99.90;;;;;;4890941;29;20191;-86
2023/11/23 01:45:50;;;;;;;6.97;4.10;;;5.10;99.90;;;;;;4892854;29;20197;-89
2023/11/23 01:48:20;;;;;;;5.77;4.00;;;5.10;99.90;;;;;;4878350;29;20219;-88
2023/11/23 01:50:46;;;;;;;6.80;4.10;;;5.10;99.90;;;;;;4888361;29;20247;-87
2023/11/23 01:53:12;;;;;;;7.50;3.77;;;5.10;99.90;;;;;;4913058;29;20199;-88
2023/11/23 01:55:38;;;;;;;6.17;4.43;;;5.10;99.90;;;;;;4882032;29;20255;-80
2023/11/23 01:58:06;;;;;;;8.10;4.27;;;5.20;99.90;;;;;;4894070;29;20266;-81
2023/11/23 02:00:33;;;;;;;6.87;4.13;;;5.20;99.90;;;;;;4889217;29;20196;-86
2023/11/23 02:03:00;;;;;;;8.90;4.23;;;5.20;99.90;;;;;;4893244;29;20196;-82
2023/11/23 02:05:27;;;;;;;6.40;3.97;;;5.20;99.90;;;;;;4883678;29;20196;-83
2023/11/23 02:07:59;;;;;;;10.40;4.57;;;5.20;99.90;;;;;;4885838;29;20278;-88
2023/11/23 02:10:25;;;;;;;7.80;4.10;;;5.20;99.90;;;;;;4893447;29;20202;-83
2023/11/23 02:12:52;;;;;;;8.77;4.80;;;5.20;99.90;;;;;;4897946;29;20196;-86
2023/11/23 02:15:18;;;;;;;7.27;4.60;;;5.20;99.90;;;;;;4892188;29;20220;-85
2023/11/23 02:17:44;;;;;;;10.37;4.43;;;5.30;99.90;;;;;;4895566;29;20199;-85
2023/11/23 02:20:11;;;;;;;7.43;4.63;;;5.30;99.90;;;;;;4885837;29;20203;-88
2023/11/23 02:22:37;;;;;;;8.40;4.90;;;5.30;99.90;;;;;;4895829;29;20535;-83
2023/11/23 02:25:06;;;;;;;8.77;4.90;;;5.20;99.90;;;;;;4889075;29;20291;-86
2023/11/23 02:27:36;;;;;;;13.97;5.60;;;5.20;99.90;;;;;;4883708;29;20279;-87
2023/11/23 02:30:03;;;;;;;10.30;6.00;;;5.20;99.90;;;;;;4896809;29;20596;-82
2023/11/23 02:32:29;;;;;;;8.97;5.73;;;5.20;99.90;;;;;;4889218;29;20287;-83
2023/11/23 02:34:55;;;;;;;9.30;5.10;;;5.20;99.90;;;;;;4894137;29;20219;-81
2023/11/23 02:37:21;;;;;;;9.57;5.57;;;5.20;99.90;;;;;;4899736;29;20198;-81
2023/11/23 02:39:47;;;;;;;9.70;5.87;;;5.20;99.90;;;;;;4905412;29;20313;-80
2023/11/23 02:42:13;;;;;;;9.60;5.90;;;5.20;99.90;;;;;;4909090;29;20282;-81
2023/11/23 02:44:38;;;;;;;10.57;6.17;;;5.30;99.90;;;;;;4915442;29;20295;-84
2023/11/23 02:47:04;;;;;;;12.27;6.47;;;5.30;99.90;;;;;;4913262;29;20272;-80
2023/11/23 02:49:30;;;;;;;10.03;6.67;;;5.30;99.90;;;;;;4919770;29;20195;-81
2023/11/23 02:51:57;;;;;;;9.30;6.00;;;5.30;99.90;;;;;;4919746;29;20186;-81
2023/11/23 02:54:23;;;;;;;12.37;7.00;;;5.30;99.90;;;;;;4906723;29;20219;-82
2023/11/23 02:56:49;;;;;;;11.63;6.93;;;5.30;99.90;;;;;;4919470;29;20190;-81
2023/11/23 02:59:15;;;;;;;12.83;7.50;;;5.30;99.90;;;;;;4915415;29;20183;-81
2023/11/23 03:01:41;;;;;;;12.73;8.13;;;5.30;99.90;;;;;;4918323;29;20201;-81
2023/11/23 03:04:07;;;;;;;13.23;8.00;;;5.30;99.90;;;;;;4909037;29;20570;-81
2023/11/23 03:06:33;;;;;;;15.63;8.70;;;5.30;99.90;;;;;;4918334;29;20281;-81
2023/11/23 03:08:59;;;;;;;14.40;8.63;;;5.30;99.90;;;;;;4919114;29;20194;-81
2023/11/23 03:11:26;;;;;;;14.50;8.93;;;5.30;99.90;;;;;;4919209;29;20536;-81
2023/11/23 03:13:53;;;;;;;17.97;10.10;;;5.30;99.90;;;;;;4911559;29;20581;-81
2023/11/23 03:16:19;;;;;;;14.37;9.13;;;5.40;99.90;;;;;;4897759;29;20198;-82
2023/11/23 03:18:45;;;;;;;15.47;9.27;;;5.40;99.90;;;;;;4902181;29;20202;-81
2023/11/23 03:21:11;;;;;;;17.90;10.03;;;5.40;99.90;;;;;;4918637;29;20721;-81
2023/11/23 03:23:37;;;;;;;19.47;10.50;;;5.40;99.90;;;;;;4910527;29;20195;-82
2023/11/23 03:26:04;;;;;;;19.00;10.00;;;5.40;99.90;;;;;;4918261;29;20187;-80
2023/11/23 03:28:30;;;;;;;17.40;10.87;;;5.40;99.90;;;;;;4913831;29;20246;-82
2023/11/23 03:30:56;;;;;;;15.80;9.90;;;5.50;99.90;;;;;;4895230;29;20191;-81
2023/11/23 03:33:22;;;;;;;19.20;11.13;;;5.50;99.90;;;;;;4915399;29;20250;-82
2023/11/23 03:35:48;;;;;;;18.37;10.37;;;5.50;99.90;;;;;;4901570;29;20262;-81
2023/11/23 03:38:14;;;;;;;18.03;10.60;;;5.60;99.90;;;;;;4918260;29;20296;-81
2023/11/23 03:40:40;;;;;;;18.93;10.57;;;5.60;99.90;;;;;;4917724;29;20349;-81
2023/11/23 03:45:41;;;;;;;17.90;11.37;;;5.70;99.90;;;;;;4920288;23;20284;-92
2023/11/23 03:48:07;;;;;;;18.40;10.93;;;5.70;99.90;;;;;;4921505;29;20198;-91
2023/11/23 03:50:33;;;;;;;19.00;11.10;;;5.70;99.90;;;;;;4922540;29;20182;-93
2023/11/23 03:52:59;;;;;;;19.07;11.80;;;5.80;99.90;;;;;;4938303;29;20177;-93
2023/11/23 03:55:25;;;;;;;16.87;11.40;;;5.80;99.90;;;;;;4914087;29;20273;-91
2023/11/23 03:57:50;;;;;;;18.43;11.37;;;5.80;99.90;;;;;;4922328;29;20189;-93
2023/11/23 04:00:16;;;;;;;22.87;13.37;;;5.70;99.90;;;;;;4921993;29;20624;-87
2023/11/23 04:02:43;;;;;;;23.10;13.90;;;5.80;99.90;;;;;;4921100;29;20236;-85
2023/11/23 04:05:09;;;;;;;25.67;13.77;;;5.70;99.90;;;;;;4922315;29;20221;-89
2023/11/23 04:07:35;;;;;;;23.40;14.90;;;5.70;99.90;;;;;;4922253;29;20540;-91
2023/11/23 04:10:02;;;;;;;28.80;13.77;;;5.70;99.90;;;;;;4922317;29;20182;-89
2023/11/23 04:12:28;;;;;;;22.03;13.50;;;5.70;99.90;;;;;;4921795;29;20177;-88
2023/11/23 04:14:54;;;;;;;30.03;14.80;;;5.80;99.90;;;;;;4921977;29;20687;-91
2023/11/23 04:17:20;;;;;;;23.47;14.93;;;5.70;99.90;;;;;;4922002;29;20174;-89
2023/11/23 04:19:45;;;;;;;25.37;14.90;;;5.70;99.90;;;;;;4922385;29;20213;-95
2023/11/23 04:22:11;;;;;;;27.80;15.77;;;5.80;99.90;;;;;;4922350;29;20627;-95
2023/11/23 04:24:38;;;;;;;24.93;15.10;;;5.80;99.90;;;;;;4920791;29;20192;-94
2023/11/23 04:27:04;;;;;;;28.73;15.23;;;5.80;99.90;;;;;;4938224;29;20260;-91
2023/11/23 04:29:30;;;;;;;27.60;15.67;;;5.80;99.90;;;;;;4921587;29;20403;-93
2023/11/23 04:31:56;;;;;;;26.23;16.33;;;5.80;99.90;;;;;;4914348;29;20395;-94
2023/11/23 04:34:22;;;;;;;27.67;15.90;;;5.80;99.90;;;;;;4921308;29;20276;-93
2023/11/23 04:36:48;;;;;;;29.73;16.13;;;5.90;99.90;;;;;;4921915;29;20628;-94
2023/11/23 04:39:14;;;;;;;28.67;16.17;;;5.90;99.90;;;;;;4921503;29;20206;-90
2023/11/23 04:41:40;;;;;;;23.03;14.87;;;5.90;99.90;;;;;;4921743;29;20189;-95
2023/11/23 04:44:06;;;;;;;27.20;16.30;;;5.90;99.90;;;;;;4919740;29;20288;-86
2023/11/23 04:46:33;;;;;;;25.03;15.23;;;6.00;99.90;;;;;;4921583;29;20177;-88
2023/11/23 04:48:58;;;;;;;26.70;15.90;;;6.00;99.90;;;;;;4938885;29;20181;-91
2023/11/23 04:51:24;;;;;;;27.30;16.40;;;6.00;99.90;;;;;;4938323;29;20496;-94
2023/11/23 04:53:50;;;;;;;26.77;15.67;;;6.00;99.90;;;;;;4921456;29;20189;-88
2023/11/23 04:56:17;;;;;;;23.83;15.90;;;6.10;99.90;;;;;;4921977;29;20196;-92
2023/11/23 04:58:42;;;;;;;28.13;17.23;;;6.00;99.90;;;;;;4915248;29;20622;-94
2023/11/23 05:01:08;;;;;;;26.23;15.77;;;6.10;99.90;;;;;;4921675;29;20193;-93
2023/11/23 05:03:34;;;;;;;26.80;16.37;;;6.10;99.90;;;;;;4921764;29;20280;-93
2023/11/23 05:06:00;;;;;;;27.53;16.30;;;6.10;99.90;;;;;;4938459;29;20178;-91
2023/11/23 05:08:27;;;;;;;26.47;16.97;;;6.10;99.90;;;;;;4936048;29;20186;-92
2023/11/23 05:10:53;;;;;;;25.90;15.70;;;6.10;99.90;;;;;;4929887;29;20193;-92
2023/11/23 05:13:19;;;;;;;28.60;15.77;;;6.10;99.90;;;;;;4920957;29;20194;-93
2023/11/23 05:15:44;;;;;;;27.10;16.13;;;6.20;99.90;;;;;;4912621;29;20211;-93
2023/11/23 05:18:10;;;;;;;27.77;15.83;;;6.10;99.90;;;;;;4920539;29;20561;-94
2023/11/23 05:20:36;;;;;;;25.17;16.13;;;6.20;99.90;;;;;;4921673;29;20211;-89
2023/11/23 05:23:02;;;;;;;30.90;17.33;;;6.20;99.90;;;;;;4913120;29;20195;-92
2023/11/23 05:25:28;;;;;;;26.83;16.47;;;6.20;99.90;;;;;;4920952;29;20701;-91
2023/11/23 05:27:53;;;;;;;27.70;16.60;;;6.20;99.90;;;;;;4920739;29;20237;-92
2023/11/23 05:30:19;;;;;;;27.27;16.50;;;6.30;99.90;;;;;;4918525;29;20182;-92
2023/11/23 05:32:47;;;;;;;26.73;17.07;;;6.20;99.90;;;;;;4920308;29;20193;-92
2023/11/23 05:35:13;;;;;;;29.60;16.40;;;6.30;99.90;;;;;;4937081;29;20310;-93
2023/11/23 05:37:42;;;;;;;25.13;17.13;;;6.20;99.90;;;;;;4920981;29;20225;-93
2023/11/23 05:40:09;;;;;;;25.53;16.90;;;6.30;99.90;;;;;;4936230;29;20190;-94
2023/11/23 05:42:35;;;;;;;25.70;17.53;;;6.30;99.90;;;;;;4918356;29;20194;-94
2023/11/23 05:45:01;;;;;;;27.40;17.03;;;6.30;99.90;;;;;;4937548;29;20264;-87
2023/11/23 05:47:27;;;;;;;27.63;17.40;;;6.30;99.90;;;;;;4919571;29;20277;-92
2023/11/23 05:49:53;;;;;;;28.33;17.57;;;6.30;99.90;;;;;;4919709;29;20656;-93
2023/11/23 05:52:19;;;;;;;29.07;17.30;;;6.40;99.90;;;;;;4937959;29;20193;-89
2023/11/23 05:54:45;;;;;;;24.80;16.93;;;6.40;99.90;;;;;;4920323;29;20218;-88
2023/11/23 05:57:10;;;;;;;26.67;16.93;;;6.40;99.90;;;;;;4919980;29;20529;-91
2023/11/23 05:59:36;;;;;;;28.50;17.37;;;6.50;99.90;;;;;;4912298;29;20194;-93
2023/11/23 06:02:05;;;;;;;28.17;18.20;;;6.50;99.90;;;;;;4920892;29;20303;-93
2023/11/23 06:04:31;;;;;;;31.67;17.73;;;6.50;99.90;;;;;;4912881;29;20186;-93
2023/11/23 06:06:58;;;;;;;25.77;17.30;;;6.50;99.90;;;;;;4912391;29;20274;-87
2023/11/23 06:09:24;;;;;;;24.33;17.40;;;6.50;99.90;;;;;;4920816;29;20182;-86
2023/11/23 06:11:49;;;;;;;27.13;18.13;;;6.60;99.90;;;;;;4919501;29;20229;-91
2023/11/23 06:14:15;;;;;;;27.27;18.33;;;6.60;99.90;;;;;;4917925;29;20229;-95
2023/11/23 06:16:46;;;;;;;26.23;17.77;;;6.70;99.90;;;;;;4922281;29;20276;-96
2023/11/23 06:19:12;;;;;;;26.37;17.00;;;6.70;99.90;;;;;;4922222;29;20196;-92
2023/11/23 06:21:38;;;;;;;30.57;18.60;;;6.70;99.90;;;;;;4940120;29;20186;-91
2023/11/23 06:24:04;;;;;;;25.43;17.40;;;6.80;99.90;;;;;;4923562;29;20213;-94
2023/11/23 06:26:29;;;;;;;23.97;16.83;;;6.70;99.90;;;;;;4923628;29;20236;-91
2023/11/23 06:28:55;;;;;;;24.77;16.97;;;6.80;99.90;;;;;;4941787;29;20260;-94
2023/11/23 06:31:21;;;;;;;23.10;17.43;;;6.80;99.90;;;;;;4915340;29;20186;-90
2023/11/23 06:33:47;;;;;;;26.10;16.73;;;6.80;99.90;;;;;;4924189;29;20201;-96
2023/11/23 06:36:16;;;;;;;26.57;16.73;;;6.80;99.90;;;;;;4924260;29;20256;-89
2023/11/23 06:38:41;;;;;;;25.80;17.83;;;6.80;99.90;;;;;;4938517;29;20184;-91
2023/11/23 06:41:19;;;;;;;24.03;17.80;;;6.90;99.90;;;;;;4938115;29;20201;-91
2023/11/23 06:43:49;;;;;;;27.63;18.10;;;6.90;99.90;;;;;;4919346;29;20186;-91
2023/11/23 06:46:16;;;;;;;26.87;17.37;;;7.00;99.90;;;;;;4921147;29;20187;-88
2023/11/23 06:48:44;;;;;;;25.17;17.57;;;7.00;99.90;;;;;;4904497;29;20223;-93
2023/11/23 06:51:10;;;;;;;29.83;17.80;;;7.00;99.90;;;;;;4904780;29;20610;-90
2023/11/23 06:53:45;;;;;;;32.30;19.10;;;7.00;99.90;;;;;;4901362;29;20190;-93
2023/11/23 06:56:18;;;;;;;30.90;18.67;;;7.10;99.90;;;;;;4917932;29;20229;-89
2023/11/23 06:58:48;;;;;;;28.70;19.27;;;7.10;99.90;;;;;;4888760;29;20225;-91
2023/11/23 07:01:17;;;;;;;29.07;18.37;;;7.10;99.90;;;;;;4899338;29;20584;-92
2023/11/23 07:03:43;;;;;;;27.77;18.40;;;7.10;99.90;;;;;;4921797;29;20190;-92
2023/11/23 07:06:09;;;;;;;27.77;18.00;;;7.20;99.90;;;;;;4921895;29;20610;-91
2023/11/23 07:08:37;;;;;;;26.80;17.50;;;7.20;99.90;;;;;;4904991;29;20285;-92
2023/11/23 07:11:04;;;;;;;27.73;17.57;;;7.20;99.90;;;;;;4905199;29;20217;-88
2023/11/23 07:13:31;;;;;;;30.20;18.77;;;7.30;99.90;;;;;;4920856;29;20295;-93
2023/11/23 07:15:59;;;;;;;28.30;19.17;;;7.40;99.90;;;;;;4904562;29;20291;-95
2023/11/23 07:18:26;;;;;;;30.90;20.10;;;7.40;99.90;;;;;;4921294;29;20175;-90
2023/11/23 07:20:55;;;;;;;32.57;19.80;;;7.40;99.90;;;;;;4896512;29;20194;-94
2023/11/23 07:23:24;;;;;;;33.43;20.77;;;7.40;99.90;;;;;;4904016;29;20194;-93
2023/11/23 07:25:52;;;;;;;33.13;20.30;;;7.40;99.90;;;;;;4904601;29;20182;-92
2023/11/23 07:28:21;;;;;;;29.73;20.40;;;7.50;99.90;;;;;;4904174;29;20183;-89
2023/11/23 07:30:48;;;;;;;32.77;21.43;;;7.50;99.90;;;;;;4919552;29;20181;-94
2023/11/23 07:33:15;;;;;;;31.70;21.10;;;7.50;99.90;;;;;;4903065;29;20197;-90
2023/11/23 07:35:46;;;;;;;35.83;21.63;;;7.60;99.90;;;;;;4899857;29;20277;-89
2023/11/23 07:38:15;;;;;;;35.60;21.70;;;7.60;99.90;;;;;;4901051;29;20277;-95
2023/11/23 07:40:41;;;;;;;31.80;21.13;;;7.60;99.90;;;;;;4903312;29;20585;-94
2023/11/23 07:43:08;;;;;;;31.47;21.67;;;7.60;99.90;;;;;;4905469;29;20191;-92
2023/11/23 07:45:34;;;;;;;31.97;21.80;;;7.60;99.90;;;;;;4912463;29;20670;-93
2023/11/23 07:48:08;;;;;;;33.73;21.77;;;7.60;99.90;;;;;;4920074;29;20230;-93
2023/11/23 07:50:38;;;;;;;33.37;20.93;;;7.60;99.90;;;;;;4919538;29;20277;-90
2023/11/23 07:53:04;;;;;;;33.80;20.63;;;7.70;99.90;;;;;;4920817;29;20183;-96
2023/11/23 07:55:31;;;;;;;34.90;21.37;;;7.70;99.90;;;;;;4916793;29;20214;-93
2023/11/23 07:57:58;;;;;;;31.33;20.17;;;7.80;99.90;;;;;;4919917;29;20186;-94
2023/11/23 08:00:24;;;;;;;29.67;19.47;;;7.70;99.90;;;;;;4918335;29;20254;-94
2023/11/23 08:02:50;;;;;;;32.00;19.97;;;7.80;99.90;;;;;;4920342;29;20207;-95
2023/11/23 08:05:15;;;;;;;28.30;18.80;;;7.80;99.90;;;;;;4919772;29;20213;-94
2023/11/23 08:07:42;;;;;;;28.90;18.13;;;7.80;99.90;;;;;;4919852;29;20186;-92
2023/11/23 08:10:08;;;;;;;30.17;19.23;;;7.80;99.90;;;;;;4921333;29;20190;-95
2023/11/23 08:12:34;;;;;;;32.43;18.07;;;7.80;99.90;;;;;;4918927;29;20522;-95
2023/11/23 08:15:00;;;;;;;26.10;17.27;;;7.90;99.90;;;;;;4902903;29;20309;-94
2023/11/23 08:17:26;;;;;;;26.53;17.23;;;7.90;99.90;;;;;;4919974;29;20228;-93
2023/11/23 08:19:52;;;;;;;26.27;16.87;;;7.90;99.90;;;;;;4919645;29;20228;-93
2023/11/23 08:22:21;;;;;;;24.73;15.50;;;7.90;99.90;;;;;;4918030;29;20206;-92
2023/11/23 08:24:47;;;;;;;24.90;15.93;;;7.90;99.90;;;;;;4917587;29;21497;-91
2023/11/23 08:27:13;;;;;;;24.87;15.77;;;7.90;99.90;;;;;;4916114;29;20186;-93
2023/11/23 08:29:38;;;;;;;26.53;15.33;;;8.00;99.90;;;;;;4917628;29;20537;-94
2023/11/23 08:32:05;;;;;;;22.77;14.80;;;8.00;99.90;;;;;;4918510;29;20206;-91
2023/11/23 08:34:31;;;;;;;19.10;13.87;;;8.00;99.90;;;;;;4910508;29;20218;-93
2023/11/23 08:36:57;;;;;;;22.73;14.47;;;8.00;99.90;;;;;;4920335;29;20229;-94
2023/11/23 08:39:23;;;;;;;30.37;15.50;;;8.10;99.90;;;;;;4920445;29;20190;-94
2023/11/23 08:41:49;;;;;;;27.63;15.57;;;8.10;99.90;;;;;;4919214;29;20193;-96
2023/11/23 08:44:14;;;;;;;22.03;14.47;;;8.10;99.90;;;;;;4914507;29;20242;-95
2023/11/23 08:46:50;;;;;;;23.53;14.90;;;8.10;99.90;;;;;;4913207;29;20602;-95
2023/11/23 08:49:16;;;;;;;21.40;14.67;;;8.20;99.90;;;;;;4918750;29;20193;-92
2023/11/23 08:51:42;;;;;;;23.07;14.93;;;8.20;99.90;;;;;;4913868;29;20195;-94
2023/11/23 08:54:08;;;;;;;23.83;15.27;;;8.20;99.90;;;;;;4919127;29;20194;-95
2023/11/23 08:56:35;;;;;;;22.70;14.37;;;8.20;99.90;;;;;;4911365;29;20202;-95
2023/11/23 08:59:01;;;;;;;21.63;14.97;;;8.20;99.90;;;;;;4921418;29;20266;-94
2023/11/23 09:01:27;;;;;;;21.77;15.03;;;8.30;99.90;;;;;;4909179;29;20209;-88
2023/11/23 09:03:54;;;;;;;25.30;14.83;;;8.30;99.90;;;;;;4918304;29;20195;-91
2023/11/23 09:06:21;;;;;;;26.27;16.23;;;8.30;99.90;;;;;;4917327;29;20602;-94
2023/11/23 09:08:48;;;;;;;23.93;14.07;;;8.30;99.90;;;;;;4918023;29;20732;-92
2023/11/23 09:11:14;;;;;;;23.17;15.13;;;8.30;99.90;;;;;;4916739;29;20187;-90
2023/11/23 09:13:40;;;;;;;24.95;14.55;;;8.40;99.90;;;;;;4918469;29;20194;-95
2023/11/23 09:16:07;;;;;;;26.07;15.57;;;8.40;99.90;;;;;;4916258;29;20567;-94
2023/11/23 09:18:33;;;;;;;30.20;15.87;;;8.40;99.90;;;;;;4918460;29;20274;-93
2023/11/23 09:20:59;;;;;;;23.57;15.87;;;8.40;99.90;;;;;;4918804;29;20190;-95
2023/11/23 09:23:27;;;;;;;25.70;15.50;;;8.40;99.90;;;;;;4920721;29;20318;-94
2023/11/23 09:25:53;;;;;;;27.90;16.73;;;8.40;99.90;;;;;;4917042;29;20221;-91
2023/11/23 09:28:21;;;;;;;22.70;15.93;;;8.50;99.90;;;;;;4915739;29;20186;-91
2023/11/23 09:30:46;;;;;;;27.33;16.47;;;8.50;99.90;;;;;;4918839;29;20197;-92
2023/11/23 09:33:12;;;;;;;25.53;17.17;;;8.50;99.90;;;;;;4919628;29;20182;-91
2023/11/23 09:35:39;;;;;;;24.52;16.10;;;8.50;99.90;;;;;;4918733;29;20696;-93
2023/11/23 09:38:08;;;;;;;25.77;16.27;;;8.50;99.90;;;;;;4917611;29;20274;-90
2023/11/23 09:40:35;;;;;;;29.08;17.38;;;8.50;99.90;;;;;;4919054;29;20190;-93
2023/11/23 09:43:01;;;;;;;26.15;16.55;;;8.60;99.90;;;;;;4917086;29;20183;-96
2023/11/23 09:45:28;;;;;;;29.57;19.30;;;8.60;99.90;;;;;;4917336;29;20240;-89
2023/11/23 09:47:56;;;;;;;26.73;16.87;;;8.60;99.90;;;;;;4916198;29;20187;-91
2023/11/23 09:50:22;;;;;;;26.77;16.43;;;8.70;99.90;;;;;;4909328;29;20186;-93
2023/11/23 09:52:48;;;;;;;24.20;16.70;;;8.70;99.90;;;;;;4920215;29;20179;-92
2023/11/23 09:55:17;;;;;;;29.77;16.30;;;8.70;99.90;;;;;;4920986;29;20336;-94
2023/11/23 09:57:50;;;;;;;21.63;16.00;;;8.70;99.90;;;;;;4920365;29;20182;-91
2023/11/23 10:00:16;;;;;;;25.08;15.45;;;8.80;99.90;;;;;;4922436;29;20261;-91
2023/11/23 10:02:43;;;;;;;24.50;15.63;;;8.80;99.90;;;;;;4920094;29;20269;-91
2023/11/23 10:05:15;;;;;;;25.00;15.70;;;8.80;99.90;;;;;;4922197;29;20190;-91
2023/11/23 10:07:42;;;;;;;21.45;14.57;;;8.80;99.90;;;;;;4920268;29;20190;-94
2023/11/23 10:10:12;;;;;;;22.10;15.20;;;8.80;99.90;;;;;;4920103;29;20634;-93
2023/11/23 10:12:39;;;;;;;24.70;15.13;;;8.80;99.90;;;;;;4920169;29;20187;-91
2023/11/23 10:15:08;;;;;;;18.52;13.50;;;8.90;99.90;;;;;;4922006;29;20217;-92
2023/11/23 10:17:34;;;;;;;29.38;15.15;;;8.90;99.90;;;;;;4895545;29;20190;-92
2023/11/23 10:20:14;;;;;;;22.45;14.05;;;8.90;99.90;;;;;;4920113;29;20183;-93
2023/11/23 10:22:48;;;;;;;22.92;14.70;;;8.90;99.90;;;;;;4920142;29;20186;-93
2023/11/23 10:25:29;;;;;;;20.80;14.57;;;8.90;99.90;;;;;;4920658;29;20241;-95
2023/11/23 10:27:59;;;;;;;20.83;13.95;;;9.00;99.90;;;;;;4919789;29;20178;-93
2023/11/23 10:30:26;;;;;;;24.30;14.57;;;9.00;99.90;;;;;;4920880;29;20524;-93
2023/11/23 10:32:59;;;;;;;19.77;13.63;;;9.00;99.90;;;;;;4919549;29;20249;-92
2023/11/23 10:35:34;;;;;;;22.73;14.70;;;9.00;99.90;;;;;;4920288;29;20202;-89
2023/11/23 10:38:02;;;;;;;24.70;14.38;;;9.00;99.90;;;;;;4916360;29;20677;-92
2023/11/23 10:40:29;;;;;;;20.80;14.23;;;9.00;99.90;;;;;;4919942;29;20183;-93
2023/11/23 10:42:57;;;;;;;20.67;14.60;;;9.10;99.90;;;;;;4917028;29;20219;-93
2023/11/23 10:45:24;;;;;;;19.13;14.60;;;9.10;99.90;;;;;;4913973;29;20238;-94
2023/11/23 10:47:53;;;;;;;22.33;14.70;;;9.10;99.90;;;;;;4919629;29;20198;-92
2023/11/23 10:50:19;;;;;;;22.88;14.48;;;9.10;99.90;;;;;;4919966;29;20189;-92
2023/11/23 10:52:46;;;;;;;24.90;14.55;;;9.10;99.90;;;;;;4919322;29;20276;-93
2023/11/23 10:55:12;;;;;;;30.27;14.87;;;9.10;99.90;;;;;;4920049;29;20214;-94
2023/11/23 10:57:47;;;;;;;20.27;14.07;;;9.10;99.90;;;;;;4916530;29;20589;-94
2023/11/23 11:00:22;;;;;;;20.48;14.38;;;9.20;99.90;;;;;;4917297;29;20182;-92
2023/11/23 11:02:49;;;;;;;20.83;14.20;;;9.20;99.90;;;;;;4919200;29;20237;-89
2023/11/23 11:05:28;;;;;;;19.08;13.98;;;9.20;99.90;;;;;;4921136;29;20191;-95
2023/11/23 11:08:07;;;;;;;21.77;13.80;;;9.30;99.90;;;;;;4912870;29;20182;-92
2023/11/23 11:10:44;;;;;;;20.75;13.98;;;9.30;99.90;;;;;;4914520;29;20194;-94
2023/11/23 11:13:15;;;;;;;20.83;13.20;;;9.40;99.90;;;;;;4918469;29;20234;-90
2023/11/23 11:15:59;;;;;;;18.58;12.98;;;9.40;99.90;;;;;;4919774;29;20321;-90
2023/11/23 11:18:27;;;;;;;16.95;12.63;;;9.40;99.90;;;;;;4918470;29;20192;-91
2023/11/23 11:21:23;;;;;;;21.27;13.20;;;9.50;99.90;;;;;;4919908;29;20194;-91
2023/11/23 11:23:54;;;;;;;20.83;11.82;;;9.50;99.90;;;;;;4918057;29;20194;-89
2023/11/23 11:26:25;;;;;;;17.08;12.50;;;9.60;99.90;;;;;;4918970;29;20223;-95
2023/11/23 11:28:59;;;;;;;21.40;11.40;;;9.60;99.90;;;;;;4910937;29;20277;-93
2023/11/23 11:31:39;;;;;;;23.23;12.18;;;9.60;99.90;;;;;;4914746;29;20198;-91
2023/11/23 11:34:14;;;;;;;21.05;11.32;;;9.60;99.90;;;;;;4913169;29;20190;-94
2023/11/23 11:36:41;;;;;;;16.92;11.63;;;9.60;99.90;;;;;;4920052;29;20186;-92
2023/11/23 11:39:07;;;;;;;16.30;11.55;;;9.60;99.90;;;;;;4919836;29;20208;-96
2023/11/23 11:41:37;;;;;;;14.43;10.75;;;9.70;99.90;;;;;;4917830;29;20621;-94
2023/11/23 11:44:11;;;;;;;12.18;9.90;;;9.70;99.90;;;;;;4924040;29;20250;-94
2023/11/23 11:46:37;;;;;;;14.77;9.40;;;9.70;99.90;;;;;;4939756;29;20193;-95
2023/11/23 11:49:03;;;;;;;14.52;8.95;;;9.80;99.90;;;;;;4921814;29;20213;-89
2023/11/23 11:51:31;;;;;;;17.52;9.45;;;9.80;99.90;;;;;;4913036;29;20186;-92
2023/11/23 11:54:00;;;;;;;14.25;8.57;;;9.80;99.90;;;;;;4913054;29;20185;-88
2023/11/23 11:56:27;;;;;;;16.15;8.20;;;9.90;99.90;;;;;;4938472;29;20198;-90
2023/11/23 11:58:53;;;;;;;15.65;7.70;;;9.90;99.90;;;;;;4920793;29;20178;-94
2023/11/23 12:01:19;;;;;;;12.90;7.30;;;9.90;99.90;;;;;;4938196;29;20186;-91
2023/11/23 12:03:51;;;;;;;13.32;7.60;;;9.90;99.90;;;;;;4921402;29;20180;-91
2023/11/23 12:06:18;;;;;;;14.13;7.25;;;9.90;99.90;;;;;;4922476;29;20208;-89
2023/11/23 12:08:45;;;;;;;16.25;6.80;;;10.00;99.90;;;;;;4919628;29;20574;-94
2023/11/23 12:11:22;;;;;;;11.45;6.47;;;10.00;99.90;;;;;;4920630;29;20196;-92
2023/11/23 12:13:50;;;;;;;12.73;6.03;;;10.10;99.90;;;;;;4918716;29;20186;-89
2023/11/23 12:16:16;;;;;;;13.65;5.63;;;10.10;99.90;;;;;;4915773;29;20218;-88
2023/11/23 12:18:42;;;;;;;10.68;4.85;;;10.10;99.90;;;;;;4935574;29;20182;-88
2023/11/23 12:21:13;;;;;;;13.05;5.18;;;10.10;99.90;;;;;;4914134;29;20613;-90
2023/11/23 12:23:43;;;;;;;8.68;5.40;;;10.30;99.90;;;;;;4919849;29;20526;-90
2023/11/23 12:26:10;;;;;;;15.65;6.22;;;10.30;99.90;;;;;;4920691;29;20269;-88
2023/11/23 12:28:37;;;;;;;8.77;4.35;;;10.40;99.90;;;;;;4937467;29;20188;-88
2023/11/23 12:31:03;;;;;;;11.77;4.28;;;10.40;99.90;;;;;;4938436;29;20178;-90
2023/11/23 12:33:29;;;;;;;11.80;4.13;;;10.50;99.90;;;;;;4920777;29;20189;-93
2023/11/23 12:35:55;;;;;;;7.40;4.13;;;10.50;99.90;;;;;;4921409;29;20213;-87
2023/11/23 12:38:20;;;;;;;9.30;3.70;;;10.40;99.90;;;;;;4920367;29;20185;-86
2023/11/23 12:40:46;;;;;;;7.07;3.72;;;10.40;99.90;;;;;;4921467;29;20189;-91
2023/11/23 12:43:14;;;;;;;6.82;3.63;;;10.40;99.90;;;;;;4919138;29;20588;-93
2023/11/23 12:45:43;;;;;;;8.45;3.53;;;10.50;99.90;;;;;;4921437;29;20245;-92